Boynton Beach, FL (33437)

9:48 AM EST on December 05, 2016 (GMT -0500)
| | Change Station

Elev -9999 ft 0.00 °N, 0.00 °E | Updated

Partly Cloudy
Partly Cloudy
82 °F
Feels Like 86 °F
N
17
Wind Variable Wind from SSE
Gusts 21 mph

Today
High -- | Low -- °F
--% Chance of Precip.
Yesterday
High -- | Low -- °F
Precip. -- in
Pressure 30.04 in
Visibility 10.0 miles
Clouds Scattered Clouds 1900 ft
Scattered Clouds 2500 ft
Scattered Clouds 25000 ft
Heat Index 86 °F
Dew Point 70 °F
Humidity 68%
Rainfall --
Snow Depth Not available.
6:54 AM 5:27 PM
Waxing Crescent, 32% visible
METAR KPBI 051353Z 15015G20KT 10SM SCT019 SCT025 SCT250 25/21 A3004 RMK AO2 SLP172 T02500211
Pressure 30.04 in
Visibility 10.0 miles
Clouds Scattered Clouds 1900 ft
Scattered Clouds 2500 ft
Scattered Clouds 25000 ft
Heat Index 86 °F
Dew Point 70 °F
Humidity 68%
Rainfall --
Snow Depth Not available.
6:54 AM 5:27 PM
Waxing Crescent, 32% visible
METAR KPBI 051353Z 15015G20KT 10SM SCT019 SCT025 SCT250 25/21 A3004 RMK AO2 SLP172 T02500211

10-Day Weather Forecast

Almanac

Astronomy

Dec. 05, 2016 Rise Set
Actual Time
Civil Twilight
Nautical Twilight
Astronomical Twilight
Moon
Length of Visible Light
Length of Day
Tomorrow will be .
, % of the Moon is Illuminated

Today's Extremes

State Highs State Lows

Community

WunderPhotos

Upload Photos

1,955,785 photos uploaded!

WunderBlog® & News

Nearby

Air Quality

  Air Quality AQ Index Pollutant
Not available.

Snow Depth

Station Depth Elevation

Earthquake Activity

City Distance Mag. Time & Date
Minimum magnitude displayed is 2.5.

Coastal Water Temperatures

Place Temperature

Stations

Nearby Weather Stations

Station Location Temp. Windchill Dew Point Humidity Wind Precip. Elev Updated Type
                   

Watches & Warnings

There are currently no watches in effect.